Cropseyville, NY (12052)

4:07 PM EDT on September 03, 2015 (GMT -0400)
West Grafton | | Change Station
CLOSE
Current Station
Personal Weather Station
Location: Grafton, NY
Elevation: 1210 ft
Nearby Weather Stations

Elev 1210 ft 42.76 °N, 73.50 °W | Updated 2 seconds ago

Mostly Cloudy
Mostly Cloudy
77.7 °F
Feels Like 80 °F
N
0.0
Wind Variable Wind from NE
Gusts 0.0 mph

Today
High -- | Low -- °F
--% Chance of Precip.
Yesterday
High -- | Low -- °F
Precip. -- in
6:20 AM 7:25 PM
Waning Gibbous, 67% visible
Pressure 29.87 in
Visibility 8.0 miles
Clouds Clear
Heat Index 80 °F
Dew Point 71 °F
Humidity 81%
Rainfall 0.00 in
Snow Depth Not available.
UV 5 out of 12
Pollen 8.20 out of 12
Air Quality Not available.
Flu Activity Not available.
METAR KDDH 031954Z AUTO 32003KT 8SM CLR 27/19 A2988 RMK AO2 LTG DSNT E AND SW AND W SLP114 T02720194
Pressure 29.87 in
Visibility 8.0 miles
Clouds Clear
Heat Index 80 °F
Dew Point 71 °F
Humidity 81%
Rainfall 0.00 in
Snow Depth Not available.
UV 5 out of 12
Pollen 8.20 out of 12
Air Quality Not available.
Flu Activity Not available.
METAR KDDH 031954Z AUTO 32003KT 8SM CLR 27/19 A2988 RMK AO2 LTG DSNT E AND SW AND W SLP114 T02720194

10-Day Weather Forecast

×

Almanac

Astronomy

Sep. 03, 2015 Rise Set
Actual Time
Civil Twilight
Nautical Twilight
Astronomical Twilight
Moon
Length of Visible Light
Length of Day
Tomorrow will be .
, % of the Moon is Illuminated

Today's Extremes

State Highs State Lows

Community

WunderPhotos

Upload Photos

1,852,019 photos uploaded!

WunderBlogs® & News

Nearby

Air Quality

  Air Quality AQ Index Pollutant
Not available.

Snow Depth

Station Depth Elevation

Earthquake Activity

City Distance Mag. Time & Date
Minimum magnitude displayed is 2.5.

Coastal Water Temperatures

Place Temperature

Stations

Nearby Weather Stations

Station Location Temp. Windchill Dew Point Humidity Wind Precip. Elev Updated Type